Time;durP1;ratioP1;P1;durP2;ratioP2;P2;SDS_P1;SDS_P2;PMS_P1;PMS_P2;Temp;Humidity;BMP_temperature;BMP_pressure;BME280_temperature;BME280_humidity;BME280_pressure;Samples;Min_cycle;Max_cycle;Signal;HPM_P1;HPM_P2
2021/04/10 00:00:47;;;;;;;;;;;;;;;;;;5107044;28;1893;-60
2021/04/10 00:03:14;;;;;;;;;;;;;;;;;;5106920;28;948;-60
2021/04/10 00:05:39;;;;;;;;;;;;;;;;;;5107594;28;886;-60
2021/04/10 00:08:05;;;;;;;;;;;;;;;;;;5107289;28;815;-60
2021/04/10 00:10:30;;;;;;;;;;;;;;;;;;5107155;28;902;-61
2021/04/10 00:12:58;;;;;;;;;;;;;;;;;;5108198;28;827;-60
2021/04/10 00:15:24;;;;;;;;;;;;;;;;;;5108579;28;826;-60
2021/04/10 00:17:50;;;;;;;;;;;;;;;;;;5107299;28;818;-60
2021/04/10 00:20:19;;;;;;;;;;;;;;;;;;5106950;28;886;-60
2021/04/10 00:22:44;;;;;;;;;;;;;;;;;;5105790;28;1886;-60
2021/04/10 00:25:11;;;;;;;;;;;;;;;;;;5105703;28;1149;-60
2021/04/10 00:27:36;;;;;;;;;;;;;;;;;;5107720;28;807;-60
2021/04/10 00:30:03;;;;;;;;;;;;;;;;;;5107453;28;896;-60
2021/04/10 00:32:28;;;;;;;;;;;;;;;;;;5107422;28;889;-61
2021/04/10 00:34:53;;;;;;;;;;;;;;;;;;5107959;28;889;-60
2021/04/10 00:37:19;;;;;;;;;;;;;;;;;;5107307;28;968;-60
2021/04/10 00:39:44;;;;;;;;;;;;;;;;;;5107608;28;829;-61
2021/04/10 00:42:09;;;;;;;;;;;;;;;;;;5107145;28;1901;-60
2021/04/10 00:44:35;;;;;;;;;;;;;;;;;;5110129;28;877;-60
2021/04/10 00:47:00;;;;;;;;;;;;;;;;;;5111546;28;807;-60
2021/04/10 00:49:26;;;;;;;;;;;;;;;;;;5112364;28;881;-60
2021/04/10 00:51:52;;;;;;;;;;;;;;;;;;5111151;28;850;-60
2021/04/10 00:54:18;;;;;;;;;;;;;;;;;;5097638;28;1097;-60
2021/04/10 00:56:44;;;;;;;;;;;;;;;;;;5089970;28;1032;-61
2021/04/10 00:59:09;;;;;;;;;;;;;;;;;;5090825;28;847;-61
2021/04/10 01:01:35;;;;;;;;;;;;;;;;;;5090800;28;1991;-60
2021/04/10 01:04:00;;;;;;;;;;;;;;;;;;5091107;28;898;-60
2021/04/10 01:06:26;;;;;;;;;;;;;;;;;;5091802;28;799;-60
2021/04/10 01:08:52;;;;;;;;;;;;;;;;;;5072601;28;1731;-60
2021/04/10 01:11:21;;;;;;;;;;;;;;;;;;5090986;28;857;-60
2021/04/10 01:13:46;;;;;;;;;;;;;;;;;;5091085;28;874;-62
2021/04/10 01:16:17;;;;;;;;;;;;;;;;;;5090500;28;897;-60
2021/04/10 01:18:43;;;;;;;;;;;;;;;;;;5090659;28;882;-60
2021/04/10 01:21:13;;;;;;;;;;;;;;;;;;5090512;28;1906;-61
2021/04/10 01:23:57;;;;;;;;;;;;;;;;;;5090033;28;832;-60
2021/04/10 01:26:41;;;;;;;;;;;;;;;;;;5089889;28;855;-60
2021/04/10 01:29:08;;;;;;;;;;;;;;;;;;5089786;28;847;-60
2021/04/10 01:31:38;;;;;;;;;;;;;;;;;;5089593;28;918;-60
2021/04/10 01:34:05;;;;;;;;;;;;;;;;;;5034283;28;1658;-61
2021/04/10 01:36:33;;;;;;;;;;;;;;;;;;5063628;28;828;-61
2021/04/10 01:39:01;;;;;;;;;;;;;;;;;;5070674;28;819;-60
2021/04/10 01:41:28;;;;;;;;;;;;;;;;;;5070053;28;1889;-60
2021/04/10 01:43:53;;;;;;;;;;;;;;;;;;5069648;28;989;-60
2021/04/10 01:46:20;;;;;;;;;;;;;;;;;;5069715;28;879;-60
2021/04/10 01:48:47;;;;;;;;;;;;;;;;;;5068971;28;862;-60
2021/04/10 01:51:14;;;;;;;;;;;;;;;;;;5068792;28;1060;-60
2021/04/10 01:53:40;;;;;;;;;;;;;;;;;;5076250;28;1154;-59
2021/04/10 01:56:06;;;;;;;;;;;;;;;;;;5088177;28;894;-60
2021/04/10 01:58:32;;;;;;;;;;;;;;;;;;5070972;28;1479;-60
2021/04/10 02:00:58;;;;;;;;;;;;;;;;;;5062821;28;1902;-60
2021/04/10 02:03:24;;;;;;;;;;;;;;;;;;5088778;28;846;-60
2021/04/10 02:05:51;;;;;;;;;;;;;;;;;;5088843;28;918;-60
2021/04/10 02:08:18;;;;;;;;;;;;;;;;;;5086561;28;862;-60
2021/04/10 02:10:44;;;;;;;;;;;;;;;;;;5070633;28;881;-60
2021/04/10 02:13:10;;;;;;;;;;;;;;;;;;5089402;28;937;-60
2021/04/10 02:15:35;;;;;;;;;;;;;;;;;;5089181;28;878;-60
2021/04/10 02:18:01;;;;;;;;;;;;;;;;;;5089665;28;875;-61
2021/04/10 02:20:26;;;;;;;;;;;;;;;;;;5089965;28;905;-60
2021/04/10 02:22:54;;;;;;;;;;;;;;;;;;5087818;28;1075;-60
2021/04/10 02:25:21;;;;;;;;;;;;;;;;;;5088057;28;909;-60
2021/04/10 02:27:46;;;;;;;;;;;;;;;;;;5091933;28;1165;-60
2021/04/10 02:30:13;;;;;;;;;;;;;;;;;;5088566;28;878;-60
2021/04/10 02:32:39;;;;;;;;;;;;;;;;;;5088088;28;838;-60
2021/04/10 02:35:08;;;;;;;;;;;;;;;;;;5088363;28;913;-60
2021/04/10 02:37:34;;;;;;;;;;;;;;;;;;5088265;28;905;-60
2021/04/10 02:40:00;;;;;;;;;;;;;;;;;;5088473;28;905;-60
2021/04/10 02:42:28;;;;;;;;;;;;;;;;;;5088506;28;1890;-59
2021/04/10 02:44:54;;;;;;;;;;;;;;;;;;5088869;28;854;-60
2021/04/10 02:47:22;;;;;;;;;;;;;;;;;;5087704;28;850;-60
2021/04/10 02:49:58;;;;;;;;;;;;;;;;;;5087540;28;906;-60
2021/04/10 02:52:31;;;;;;;;;;;;;;;;;;5088248;28;866;-60
2021/04/10 02:54:58;;;;;;;;;;;;;;;;;;5105511;28;1157;-60
2021/04/10 02:57:24;;;;;;;;;;;;;;;;;;5108487;28;933;-60
2021/04/10 02:59:51;;;;;;;;;;;;;;;;;;5108380;28;890;-60
2021/04/10 03:02:17;;;;;;;;;;;;;;;;;;5108760;28;1969;-60
2021/04/10 03:04:44;;;;;;;;;;;;;;;;;;5108275;27;827;-60
2021/04/10 03:07:10;;;;;;;;;;;;;;;;;;5107479;28;896;-60
2021/04/10 03:09:38;;;;;;;;;;;;;;;;;;5108154;28;822;-60
2021/04/10 03:12:04;;;;;;;;;;;;;;;;;;5108297;28;1566;-60
2021/04/10 03:14:30;;;;;;;;;;;;;;;;;;5109050;28;902;-60
2021/04/10 03:16:55;;;;;;;;;;;;;;;;;;5108051;28;846;-60
2021/04/10 03:19:22;;;;;;;;;;;;;;;;;;5114383;28;881;-60
2021/04/10 03:21:47;;;;;;;;;;;;;;;;;;5118992;28;1893;-60
2021/04/10 03:24:13;;;;;;;;;;;;;;;;;;5107307;28;1107;-60
2021/04/10 03:26:38;;;;;;;;;;;;;;;;;;5099183;28;989;-60
2021/04/10 03:29:05;;;;;;;;;;;;;;;;;;5098034;28;1115;-60
2021/04/10 03:31:32;;;;;;;;;;;;;;;;;;5097000;28;803;-60
2021/04/10 03:33:58;;;;;;;;;;;;;;;;;;5097262;28;830;-60
2021/04/10 03:36:25;;;;;;;;;;;;;;;;;;5099344;28;839;-60
2021/04/10 03:38:51;;;;;;;;;;;;;;;;;;5096825;28;855;-60
2021/04/10 03:41:17;;;;;;;;;;;;;;;;;;5096988;28;1894;-60
2021/04/10 03:43:42;;;;;;;;;;;;;;;;;;5095306;28;1524;-60
2021/04/10 03:46:08;;;;;;;;;;;;;;;;;;5096456;28;839;-60
2021/04/10 03:48:33;;;;;;;;;;;;;;;;;;5096961;28;858;-60
2021/04/10 03:51:00;;;;;;;;;;;;;;;;;;5096595;28;862;-60
2021/04/10 03:56:01;;;;;;;;;;;;;;;;;;4638336;26;1834;-63
2021/04/10 03:58:26;;;;;;;;;;;;;;;;;;5032410;28;1186;-62
2021/04/10 04:00:52;;;;;;;;;;;;;;;;;;5045343;28;1910;-63
2021/04/10 04:03:17;;;;;;;;;;;;;;;;;;5036974;28;1186;-63
2021/04/10 04:05:42;;;;;;;;;;;;;;;;;;5026664;28;992;-62
2021/04/10 04:08:08;;;;;;;;;;;;;;;;;;5026705;28;802;-62
2021/04/10 04:10:33;;;;;;;;;;;;;;;;;;5027134;28;837;-62
2021/04/10 04:12:58;;;;;;;;;;;;;;;;;;5046513;28;1206;-62
2021/04/10 04:15:24;;;;;;;;;;;;;;;;;;5027808;28;834;-63
2021/04/10 04:17:49;;;;;;;;;;;;;;;;;;5029087;28;830;-62
2021/04/10 04:20:15;;;;;;;;;;;;;;;;;;5031307;28;779;-63
2021/04/10 04:22:40;;;;;;;;;;;;;;;;;;5030399;28;2109;-63
2021/04/10 04:25:07;;;;;;;;;;;;;;;;;;5030830;28;866;-63
2021/04/10 04:27:33;;;;;;;;;;;;;;;;;;5031010;28;835;-63
2021/04/10 04:29:58;;;;;;;;;;;;;;;;;;5033521;28;1066;-63
2021/04/10 04:32:25;;;;;;;;;;;;;;;;;;5030658;28;806;-63
2021/04/10 04:34:50;;;;;;;;;;;;;;;;;;5030834;28;878;-63
2021/04/10 04:37:16;;;;;;;;;;;;;;;;;;5029902;28;914;-63
2021/04/10 04:39:41;;;;;;;;;;;;;;;;;;5030000;28;941;-63
2021/04/10 04:42:07;;;;;;;;;;;;;;;;;;5028840;28;1955;-62
2021/04/10 04:44:32;;;;;;;;;;;;;;;;;;5030161;28;1031;-63
2021/04/10 04:46:58;;;;;;;;;;;;;;;;;;5031000;28;842;-63
2021/04/10 04:49:23;;;;;;;;;;;;;;;;;;5030448;28;818;-62
2021/04/10 04:51:48;;;;;;;;;;;;;;;;;;5030302;28;1032;-62
2021/04/10 04:54:14;;;;;;;;;;;;;;;;;;5030060;28;826;-62
2021/04/10 04:56:39;;;;;;;;;;;;;;;;;;5030003;28;909;-63
2021/04/10 04:59:05;;;;;;;;;;;;;;;;;;5030352;28;905;-63
2021/04/10 05:01:30;;;;;;;;;;;;;;;;;;5031124;28;1960;-63
2021/04/10 05:03:55;;;;;;;;;;;;;;;;;;5046579;28;1154;-62
2021/04/10 05:06:21;;;;;;;;;;;;;;;;;;5049140;28;826;-63
2021/04/10 05:08:46;;;;;;;;;;;;;;;;;;5050661;28;890;-63
2021/04/10 05:11:11;;;;;;;;;;;;;;;;;;5049897;28;782;-63
2021/04/10 05:13:37;;;;;;;;;;;;;;;;;;5049289;28;811;-62
2021/04/10 05:16:02;;;;;;;;;;;;;;;;;;5049840;28;890;-62
2021/04/10 05:18:28;;;;;;;;;;;;;;;;;;5050696;28;878;-63
2021/04/10 05:20:53;;;;;;;;;;;;;;;;;;5043647;28;1955;-63
2021/04/10 05:23:22;;;;;;;;;;;;;;;;;;5029977;28;867;-63
2021/04/10 05:25:48;;;;;;;;;;;;;;;;;;5030286;28;794;-63
2021/04/10 05:28:13;;;;;;;;;;;;;;;;;;5029412;28;881;-63
2021/04/10 05:30:39;;;;;;;;;;;;;;;;;;5028922;28;831;-63
2021/04/10 05:33:04;;;;;;;;;;;;;;;;;;5029437;28;878;-62
2021/04/10 05:35:30;;;;;;;;;;;;;;;;;;5029683;28;882;-62
2021/04/10 05:37:55;;;;;;;;;;;;;;;;;;5029491;28;806;-63
2021/04/10 05:40:21;;;;;;;;;;;;;;;;;;5029227;28;878;-62
2021/04/10 05:42:46;;;;;;;;;;;;;;;;;;5029189;28;1977;-62
2021/04/10 05:45:12;;;;;;;;;;;;;;;;;;5028748;28;929;-62
2021/04/10 05:47:37;;;;;;;;;;;;;;;;;;5029335;28;811;-62
2021/04/10 05:50:03;;;;;;;;;;;;;;;;;;5028303;28;1138;-62
2021/04/10 05:52:28;;;;;;;;;;;;;;;;;;5028651;28;1129;-63
2021/04/10 05:54:54;;;;;;;;;;;;;;;;;;5025640;28;1278;-63
2021/04/10 05:57:19;;;;;;;;;;;;;;;;;;5019181;28;1177;-63
2021/04/10 05:59:45;;;;;;;;;;;;;;;;;;5020835;28;1204;-62
2021/04/10 06:02:11;;;;;;;;;;;;;;;;;;5023102;28;1914;-63
2021/04/10 06:04:37;;;;;;;;;;;;;;;;;;5019328;28;1233;-63
2021/04/10 06:07:03;;;;;;;;;;;;;;;;;;5018663;28;1093;-63
2021/04/10 06:09:28;;;;;;;;;;;;;;;;;;5018704;28;1136;-62
2021/04/10 06:11:53;;;;;;;;;;;;;;;;;;5019237;28;1077;-63
2021/04/10 06:14:22;;;;;;;;;;;;;;;;;;5028243;28;1073;-62
2021/04/10 06:16:49;;;;;;;;;;;;;;;;;;5044811;28;1099;-62
2021/04/10 06:19:14;;;;;;;;;;;;;;;;;;5046360;28;1186;-63
2021/04/10 06:21:39;;;;;;;;;;;;;;;;;;5048175;28;1889;-63
2021/04/10 06:24:05;;;;;;;;;;;;;;;;;;5030244;28;1225;-63
2021/04/10 06:26:30;;;;;;;;;;;;;;;;;;5036360;28;1155;-62
2021/04/10 06:28:56;;;;;;;;;;;;;;;;;;5042408;28;1100;-62
2021/04/10 06:31:21;;;;;;;;;;;;;;;;;;5046218;28;1135;-62
2021/04/10 06:33:46;;;;;;;;;;;;;;;;;;5046241;28;1252;-63
2021/04/10 06:36:12;;;;;;;;;;;;;;;;;;5043371;28;1181;-62
2021/04/10 06:38:37;;;;;;;;;;;;;;;;;;5047866;28;1111;-63
2021/04/10 06:41:04;;;;;;;;;;;;;;;;;;5045663;28;1886;-63
2021/04/10 06:43:29;;;;;;;;;;;;;;;;;;5009464;28;981;-62
2021/04/10 06:45:55;;;;;;;;;;;;;;;;;;5008323;28;882;-62
2021/04/10 06:48:21;;;;;;;;;;;;;;;;;;5008709;28;870;-62
2021/04/10 06:50:47;;;;;;;;;;;;;;;;;;5030233;28;1199;-62
2021/04/10 06:53:16;;;;;;;;;;;;;;;;;;5048243;28;837;-62
2021/04/10 06:55:48;;;;;;;;;;;;;;;;;;5048159;28;831;-62
2021/04/10 06:58:20;;;;;;;;;;;;;;;;;;5048345;28;842;-63
2021/04/10 07:00:46;;;;;;;;;;;;;;;;;;5047823;28;1958;-62
2021/04/10 07:03:12;;;;;;;;;;;;;;;;;;5036084;28;1166;-62
2021/04/10 07:05:38;;;;;;;;;;;;;;;;;;5028104;28;822;-61
2021/04/10 07:08:05;;;;;;;;;;;;;;;;;;5026326;28;1178;-63
2021/04/10 07:10:30;;;;;;;;;;;;;;;;;;5028556;28;815;-62
2021/04/10 07:12:56;;;;;;;;;;;;;;;;;;5027998;28;830;-62
2021/04/10 07:15:21;;;;;;;;;;;;;;;;;;5023805;28;1289;-62
2021/04/10 07:17:51;;;;;;;;;;;;;;;;;;5019154;28;1350;-62
2021/04/10 07:20:33;;;;;;;;;;;;;;;;;;5017677;28;1822;-62
2021/04/10 07:23:00;;;;;;;;;;;;;;;;;;5012829;28;1911;-62
2021/04/10 07:25:25;;;;;;;;;;;;;;;;;;5021042;28;1218;-62
2021/04/10 07:27:51;;;;;;;;;;;;;;;;;;5011294;28;1751;-62
2021/04/10 07:30:16;;;;;;;;;;;;;;;;;;5021842;28;1171;-61
2021/04/10 07:32:42;;;;;;;;;;;;;;;;;;5017395;28;1215;-62
2021/04/10 07:35:07;;;;;;;;;;;;;;;;;;5019829;28;1342;-62
2021/04/10 07:37:35;;;;;;;;;;;;;;;;;;5021399;28;2070;-62
2021/04/10 07:40:01;;;;;;;;;;;;;;;;;;5025393;28;1144;-62
2021/04/10 07:42:27;;;;;;;;;;;;;;;;;;5026896;28;1949;-62
2021/04/10 07:44:53;;;;;;;;;;;;;;;;;;5026654;28;950;-61
2021/04/10 07:47:19;;;;;;;;;;;;;;;;;;5027585;28;901;-62
2021/04/10 07:49:45;;;;;;;;;;;;;;;;;;5026539;28;823;-61
2021/04/10 07:52:10;;;;;;;;;;;;;;;;;;5025950;28;1172;-62
2021/04/10 07:54:36;;;;;;;;;;;;;;;;;;5026597;28;1776;-62
2021/04/10 07:57:02;;;;;;;;;;;;;;;;;;5020294;28;1377;-62
2021/04/10 07:59:29;;;;;;;;;;;;;;;;;;5017801;28;1108;-62
2021/04/10 08:02:07;;;;;;;;;;;;;;;;;;5013851;28;1898;-62
2021/04/10 08:04:34;;;;;;;;;;;;;;;;;;5018156;28;1306;-63
2021/04/10 08:06:59;;;;;;;;;;;;;;;;;;5015576;28;1274;-61
2021/04/10 08:09:28;;;;;;;;;;;;;;;;;;5009619;28;1156;-61
2021/04/10 08:11:53;;;;;;;;;;;;;;;;;;5007691;28;822;-61
2021/04/10 08:14:19;;;;;;;;;;;;;;;;;;5006805;28;862;-61
2021/04/10 08:16:53;;;;;;;;;;;;;;;;;;5005561;28;838;-61
2021/04/10 08:19:31;;;;;;;;;;;;;;;;;;5009471;28;1121;-62
2021/04/10 08:21:57;;;;;;;;;;;;;;;;;;5026451;28;1995;-61
2021/04/10 08:24:39;;;;;;;;;;;;;;;;;;5025831;28;814;-62
2021/04/10 08:27:05;;;;;;;;;;;;;;;;;;5038326;28;1413;-62
2021/04/10 08:29:31;;;;;;;;;;;;;;;;;;5027131;28;822;-61
2021/04/10 08:31:57;;;;;;;;;;;;;;;;;;5025764;28;1223;-61
2021/04/10 08:34:23;;;;;;;;;;;;;;;;;;5026387;28;962;-62
2021/04/10 08:36:53;;;;;;;;;;;;;;;;;;5027694;28;1023;-62
2021/04/10 08:39:19;;;;;;;;;;;;;;;;;;5026426;28;853;-62
2021/04/10 08:41:46;;;;;;;;;;;;;;;;;;5026454;28;1894;-61
2021/04/10 08:44:13;;;;;;;;;;;;;;;;;;5026769;28;798;-62
2021/04/10 08:46:40;;;;;;;;;;;;;;;;;;5026747;28;862;-63
2021/04/10 08:49:06;;;;;;;;;;;;;;;;;;5026262;28;846;-62
2021/04/10 08:51:33;;;;;;;;;;;;;;;;;;5027748;28;902;-62
2021/04/10 08:53:59;;;;;;;;;;;;;;;;;;5027490;28;942;-62
2021/04/10 08:56:26;;;;;;;;;;;;;;;;;;5026787;28;843;-62
2021/04/10 08:58:51;;;;;;;;;;;;;;;;;;5026595;28;803;-62
2021/04/10 09:01:18;;;;;;;;;;;;;;;;;;5026363;28;1879;-62
2021/04/10 09:03:47;;;;;;;;;;;;;;;;;;5041459;28;1162;-62
2021/04/10 09:06:14;;;;;;;;;;;;;;;;;;5050154;28;831;-62
2021/04/10 09:08:39;;;;;;;;;;;;;;;;;;5050279;28;838;-62
2021/04/10 09:11:05;;;;;;;;;;;;;;;;;;5049624;28;802;-62
2021/04/10 09:13:43;;;;;;;;;;;;;;;;;;5050978;28;835;-62
2021/04/10 09:16:28;;;;;;;;;;;;;;;;;;5050547;28;814;-62
2021/04/10 09:19:04;;;;;;;;;;;;;;;;;;5049575;28;810;-62
2021/04/10 09:21:35;;;;;;;;;;;;;;;;;;5050589;28;1898;-61
2021/04/10 09:24:16;;;;;;;;;;;;;;;;;;5049485;28;889;-62
2021/04/10 09:26:51;;;;;;;;;;;;;;;;;;5048298;28;1636;-62
2021/04/10 09:29:17;;;;;;;;;;;;;;;;;;5028021;28;949;-61
2021/04/10 09:31:45;;;;;;;;;;;;;;;;;;5029897;28;889;-62
2021/04/10 09:34:29;;;;;;;;;;;;;;;;;;5030093;28;824;-62
2021/04/10 09:36:54;;;;;;;;;;;;;;;;;;5029507;28;847;-62
2021/04/10 09:39:38;;;;;;;;;;;;;;;;;;5029355;28;854;-62
2021/04/10 09:42:03;;;;;;;;;;;;;;;;;;5029085;28;1965;-63
2021/04/10 09:44:29;;;;;;;;;;;;;;;;;;5030686;28;707;-62
2021/04/10 09:46:54;;;;;;;;;;;;;;;;;;5029418;28;850;-62
2021/04/10 09:49:36;;;;;;;;;;;;;;;;;;5029884;28;897;-62
2021/04/10 09:52:02;;;;;;;;;;;;;;;;;;5030415;28;810;-61
2021/04/10 09:54:27;;;;;;;;;;;;;;;;;;5028965;28;799;-62
2021/04/10 09:56:53;;;;;;;;;;;;;;;;;;5029201;28;826;-62
2021/04/10 09:59:18;;;;;;;;;;;;;;;;;;5028815;28;968;-61
2021/04/10 10:01:44;;;;;;;;;;;;;;;;;;5028663;28;1890;-61
2021/04/10 10:04:13;;;;;;;;;;;;;;;;;;5029175;28;1158;-62
2021/04/10 10:06:43;;;;;;;;;;;;;;;;;;5029608;28;814;-62
2021/04/10 10:09:21;;;;;;;;;;;;;;;;;;5028964;28;862;-61
2021/04/10 10:11:54;;;;;;;;;;;;;;;;;;5028983;28;830;-61
2021/04/10 10:14:20;;;;;;;;;;;;;;;;;;5029492;28;839;-61
2021/04/10 10:16:45;;;;;;;;;;;;;;;;;;5043955;28;842;-61
2021/04/10 10:19:15;;;;;;;;;;;;;;;;;;5028801;28;795;-61
2021/04/10 10:21:40;;;;;;;;;;;;;;;;;;5028935;28;1961;-61
2021/04/10 10:24:06;;;;;;;;;;;;;;;;;;5028468;28;847;-62
2021/04/10 10:26:35;;;;;;;;;;;;;;;;;;5029115;28;902;-61
2021/04/10 10:29:04;;;;;;;;;;;;;;;;;;5029463;28;806;-61
2021/04/10 10:31:32;;;;;;;;;;;;;;;;;;5029879;28;858;-61
2021/04/10 10:34:04;;;;;;;;;;;;;;;;;;5028062;28;890;-60
2021/04/10 10:36:34;;;;;;;;;;;;;;;;;;5029253;28;815;-61
2021/04/10 10:39:00;;;;;;;;;;;;;;;;;;5032226;28;1086;-61
2021/04/10 10:41:25;;;;;;;;;;;;;;;;;;5028629;28;1890;-60
2021/04/10 10:43:51;;;;;;;;;;;;;;;;;;5028333;28;945;-60
2021/04/10 10:46:17;;;;;;;;;;;;;;;;;;5028339;28;854;-60
2021/04/10 10:48:43;;;;;;;;;;;;;;;;;;5028520;28;823;-61
2021/04/10 10:51:13;;;;;;;;;;;;;;;;;;5028027;28;916;-61
2021/04/10 10:53:52;;;;;;;;;;;;;;;;;;5026838;28;878;-60
2021/04/10 10:56:19;;;;;;;;;;;;;;;;;;5044015;28;820;-60
2021/04/10 10:58:54;;;;;;;;;;;;;;;;;;5028005;28;861;-60
2021/04/10 11:01:21;;;;;;;;;;;;;;;;;;5028116;28;1926;-61
2021/04/10 11:03:49;;;;;;;;;;;;;;;;;;5043404;28;1063;-62
2021/04/10 11:06:16;;;;;;;;;;;;;;;;;;5047995;28;873;-62
2021/04/10 11:08:41;;;;;;;;;;;;;;;;;;5048134;28;823;-62
2021/04/10 11:11:07;;;;;;;;;;;;;;;;;;5047876;28;877;-62
2021/04/10 11:13:32;;;;;;;;;;;;;;;;;;5049483;28;909;-62
2021/04/10 11:15:58;;;;;;;;;;;;;;;;;;5048021;28;878;-62
2021/04/10 11:18:25;;;;;;;;;;;;;;;;;;5047999;28;830;-62
2021/04/10 11:20:50;;;;;;;;;;;;;;;;;;5048333;28;1901;-62
2021/04/10 11:23:15;;;;;;;;;;;;;;;;;;5047999;28;839;-62
2021/04/10 11:25:47;;;;;;;;;;;;;;;;;;5047939;28;821;-62
2021/04/10 11:28:32;;;;;;;;;;;;;;;;;;5047116;28;810;-62
2021/04/10 11:31:04;;;;;;;;;;;;;;;;;;5047900;28;798;-62
2021/04/10 11:33:30;;;;;;;;;;;;;;;;;;5048135;28;830;-62
2021/04/10 11:35:56;;;;;;;;;;;;;;;;;;5047187;28;877;-62
2021/04/10 11:38:21;;;;;;;;;;;;;;;;;;5048152;28;929;-62
2021/04/10 11:40:46;;;;;;;;;;;;;;;;;;5047672;28;901;-62
2021/04/10 11:43:13;;;;;;;;;;;;;;;;;;5046227;28;1961;-62
2021/04/10 11:45:39;;;;;;;;;;;;;;;;;;5046298;28;1321;-62
2021/04/10 11:48:06;;;;;;;;;;;;;;;;;;5047591;28;807;-63
2021/04/10 11:50:44;;;;;;;;;;;;;;;;;;5048109;28;878;-62
2021/04/10 11:53:13;;;;;;;;;;;;;;;;;;5047221;28;924;-62
2021/04/10 11:55:39;;;;;;;;;;;;;;;;;;5047321;28;915;-62
2021/04/10 11:58:04;;;;;;;;;;;;;;;;;;5047052;28;811;-62
2021/04/10 12:00:29;;;;;;;;;;;;;;;;;;5045990;28;1188;-62
2021/04/10 12:03:11;;;;;;;;;;;;;;;;;;5038892;28;1977;-62
2021/04/10 12:05:42;;;;;;;;;;;;;;;;;;5027275;28;878;-62
2021/04/10 12:08:20;;;;;;;;;;;;;;;;;;5027311;28;807;-62
2021/04/10 12:10:45;;;;;;;;;;;;;;;;;;5027641;28;834;-62
2021/04/10 12:13:11;;;;;;;;;;;;;;;;;;5042642;28;853;-62
2021/04/10 12:15:37;;;;;;;;;;;;;;;;;;5027077;28;790;-62
2021/04/10 12:18:03;;;;;;;;;;;;;;;;;;5027886;28;893;-62
2021/04/10 12:20:29;;;;;;;;;;;;;;;;;;5027549;28;626;-62
2021/04/10 12:22:54;;;;;;;;;;;;;;;;;;5026834;28;1910;-62
2021/04/10 12:25:20;;;;;;;;;;;;;;;;;;5026932;28;870;-62
2021/04/10 12:27:45;;;;;;;;;;;;;;;;;;5027553;28;902;-62
2021/04/10 12:30:11;;;;;;;;;;;;;;;;;;5027240;28;819;-62
2021/04/10 12:32:36;;;;;;;;;;;;;;;;;;5026993;28;1012;-62
2021/04/10 12:35:02;;;;;;;;;;;;;;;;;;5027626;28;905;-62
2021/04/10 12:37:27;;;;;;;;;;;;;;;;;;5029627;28;1130;-62
2021/04/10 12:39:53;;;;;;;;;;;;;;;;;;5030255;28;913;-62
2021/04/10 12:42:18;;;;;;;;;;;;;;;;;;5030639;28;1918;-62
2021/04/10 12:44:43;;;;;;;;;;;;;;;;;;5031241;28;942;-62
2021/04/10 12:47:15;;;;;;;;;;;;;;;;;;5029561;28;925;-62
2021/04/10 12:49:41;;;;;;;;;;;;;;;;;;5030695;28;839;-62
2021/04/10 12:52:07;;;;;;;;;;;;;;;;;;5030988;28;783;-62
2021/04/10 12:54:32;;;;;;;;;;;;;;;;;;5031439;28;920;-62
2021/04/10 12:56:57;;;;;;;;;;;;;;;;;;5030423;28;881;-62
2021/04/10 12:59:23;;;;;;;;;;;;;;;;;;5029232;28;945;-62
2021/04/10 13:01:48;;;;;;;;;;;;;;;;;;5030766;28;1894;-62
2021/04/10 13:04:13;;;;;;;;;;;;;;;;;;5049414;28;1151;-61
2021/04/10 13:06:39;;;;;;;;;;;;;;;;;;5050087;28;893;-61
2021/04/10 13:09:04;;;;;;;;;;;;;;;;;;5050977;28;787;-61
2021/04/10 13:11:30;;;;;;;;;;;;;;;;;;5051123;28;878;-60
2021/04/10 13:13:55;;;;;;;;;;;;;;;;;;5050021;28;830;-61
2021/04/10 13:16:21;;;;;;;;;;;;;;;;;;5049801;28;802;-60
2021/04/10 13:18:46;;;;;;;;;;;;;;;;;;5049841;28;822;-61
2021/04/10 13:21:12;;;;;;;;;;;;;;;;;;5049565;28;1897;-62
2021/04/10 13:23:37;;;;;;;;;;;;;;;;;;5050155;28;865;-61
2021/04/10 13:26:02;;;;;;;;;;;;;;;;;;5051097;28;830;-61
2021/04/10 13:28:28;;;;;;;;;;;;;;;;;;5049593;28;818;-61
2021/04/10 13:30:53;;;;;;;;;;;;;;;;;;5049591;28;897;-61
2021/04/10 13:33:18;;;;;;;;;;;;;;;;;;5049819;28;858;-61
2021/04/10 13:35:44;;;;;;;;;;;;;;;;;;5049942;28;886;-61
2021/04/10 13:38:09;;;;;;;;;;;;;;;;;;5049550;28;865;-62
2021/04/10 13:40:35;;;;;;;;;;;;;;;;;;5048560;28;888;-61
2021/04/10 13:43:00;;;;;;;;;;;;;;;;;;5051085;28;1953;-61
2021/04/10 13:45:26;;;;;;;;;;;;;;;;;;5049751;28;866;-60
2021/04/10 13:47:51;;;;;;;;;;;;;;;;;;5049328;28;905;-60
2021/04/10 13:50:16;;;;;;;;;;;;;;;;;;5047334;28;819;-61
2021/04/10 13:52:43;;;;;;;;;;;;;;;;;;5048281;28;909;-61
2021/04/10 13:55:09;;;;;;;;;;;;;;;;;;5049407;28;938;-60
2021/04/10 13:57:34;;;;;;;;;;;;;;;;;;5049761;28;898;-60
2021/04/10 14:00:00;;;;;;;;;;;;;;;;;;5048703;28;799;-60
2021/04/10 14:02:25;;;;;;;;;;;;;;;;;;5044688;28;1898;-60
2021/04/10 14:05:00;;;;;;;;;;;;;;;;;;5029278;28;850;-60
2021/04/10 14:07:30;;;;;;;;;;;;;;;;;;5029483;28;823;-61
2021/04/10 14:09:55;;;;;;;;;;;;;;;;;;5028797;28;810;-60
2021/04/10 14:12:21;;;;;;;;;;;;;;;;;;5029107;28;933;-62
2021/04/10 14:14:46;;;;;;;;;;;;;;;;;;5028844;28;838;-63
2021/04/10 14:17:12;;;;;;;;;;;;;;;;;;5029037;28;834;-62
2021/04/10 14:19:37;;;;;;;;;;;;;;;;;;5028309;28;921;-63
2021/04/10 14:22:03;;;;;;;;;;;;;;;;;;5027787;28;1906;-62
2021/04/10 14:24:28;;;;;;;;;;;;;;;;;;5027289;28;1020;-62
2021/04/10 14:26:54;;;;;;;;;;;;;;;;;;5017711;28;831;-62
2021/04/10 14:29:19;;;;;;;;;;;;;;;;;;5008859;28;850;-62
2021/04/10 14:31:45;;;;;;;;;;;;;;;;;;5024341;28;874;-63
2021/04/10 14:34:11;;;;;;;;;;;;;;;;;;5007741;28;938;-63
2021/04/10 14:36:38;;;;;;;;;;;;;;;;;;5019306;28;1249;-61
2021/04/10 14:39:04;;;;;;;;;;;;;;;;;;5027756;28;882;-62
2021/04/10 14:41:29;;;;;;;;;;;;;;;;;;5029030;28;1961;-63
2021/04/10 14:43:54;;;;;;;;;;;;;;;;;;5028280;28;838;-62
2021/04/10 14:46:20;;;;;;;;;;;;;;;;;;5028524;28;808;-62
2021/04/10 14:48:45;;;;;;;;;;;;;;;;;;5027978;28;827;-62
2021/04/10 14:51:11;;;;;;;;;;;;;;;;;;5028040;28;804;-61
2021/04/10 14:53:39;;;;;;;;;;;;;;;;;;5027086;28;1120;-63
2021/04/10 14:56:07;;;;;;;;;;;;;;;;;;5026971;28;1117;-62
2021/04/10 14:58:32;;;;;;;;;;;;;;;;;;5028437;28;1085;-62
2021/04/10 15:00:58;;;;;;;;;;;;;;;;;;5027133;28;1910;-62
2021/04/10 15:03:24;;;;;;;;;;;;;;;;;;5039342;28;1368;-63
2021/04/10 15:05:57;;;;;;;;;;;;;;;;;;5048059;28;819;-63
2021/04/10 15:08:23;;;;;;;;;;;;;;;;;;5038502;28;849;-61
2021/04/10 15:10:49;;;;;;;;;;;;;;;;;;5018057;28;1180;-62
2021/04/10 15:13:15;;;;;;;;;;;;;;;;;;5022161;28;2037;-62
2021/04/10 15:15:40;;;;;;;;;;;;;;;;;;5027285;28;914;-63
2021/04/10 15:18:06;;;;;;;;;;;;;;;;;;5028027;28;834;-63
2021/04/10 15:20:35;;;;;;;;;;;;;;;;;;5028964;28;849;-61
2021/04/10 15:23:05;;;;;;;;;;;;;;;;;;5030830;28;1999;-61
2021/04/10 15:25:33;;;;;;;;;;;;;;;;;;5042665;28;1646;-60
2021/04/10 15:27:58;;;;;;;;;;;;;;;;;;5035943;28;976;-63
2021/04/10 15:30:24;;;;;;;;;;;;;;;;;;5023551;28;1071;-63
2021/04/10 15:32:50;;;;;;;;;;;;;;;;;;5027730;28;958;-65
2021/04/10 15:35:17;;;;;;;;;;;;;;;;;;5027354;28;886;-61
2021/04/10 15:37:43;;;;;;;;;;;;;;;;;;5022514;28;901;-64
2021/04/10 15:40:13;;;;;;;;;;;;;;;;;;5027846;28;866;-65
2021/04/10 15:42:41;;;;;;;;;;;;;;;;;;5026963;28;2000;-60
2021/04/10 15:45:10;;;;;;;;;;;;;;;;;;5023458;28;896;-65
2021/04/10 15:47:37;;;;;;;;;;;;;;;;;;5021619;28;929;-65
2021/04/10 15:50:04;;;;;;;;;;;;;;;;;;5032793;28;905;-64
2021/04/10 15:52:30;;;;;;;;;;;;;;;;;;5025153;28;939;-64
2021/04/10 15:54:55;;;;;;;;;;;;;;;;;;5025703;28;974;-63
2021/04/10 15:57:21;;;;;;;;;;;;;;;;;;5027114;28;941;-64
2021/04/10 15:59:46;;;;;;;;;;;;;;;;;;5026587;28;810;-64
2021/04/10 16:02:12;;;;;;;;;;;;;;;;;;5028860;28;1894;-63
2021/04/10 16:04:37;;;;;;;;;;;;;;;;;;5047126;28;874;-62
2021/04/10 16:07:03;;;;;;;;;;;;;;;;;;5047578;28;921;-63
2021/04/10 16:09:28;;;;;;;;;;;;;;;;;;5047061;28;892;-63
2021/04/10 16:11:53;;;;;;;;;;;;;;;;;;5034371;28;1860;-62
2021/04/10 16:14:19;;;;;;;;;;;;;;;;;;5013204;28;823;-63
2021/04/10 16:16:44;;;;;;;;;;;;;;;;;;5026297;28;640;-63
2021/04/10 16:19:10;;;;;;;;;;;;;;;;;;5026457;28;897;-61
2021/04/10 16:21:36;;;;;;;;;;;;;;;;;;5027659;28;1885;-62
2021/04/10 16:24:02;;;;;;;;;;;;;;;;;;5013207;28;851;-63
2021/04/10 16:26:27;;;;;;;;;;;;;;;;;;5006916;28;807;-62
2021/04/10 16:28:53;;;;;;;;;;;;;;;;;;5007010;28;897;-63
2021/04/10 16:31:18;;;;;;;;;;;;;;;;;;5007096;28;906;-62
2021/04/10 16:33:43;;;;;;;;;;;;;;;;;;5018624;28;1091;-63
2021/04/10 16:36:09;;;;;;;;;;;;;;;;;;5026734;28;819;-63
2021/04/10 16:38:35;;;;;;;;;;;;;;;;;;5027800;28;823;-63
2021/04/10 16:41:01;;;;;;;;;;;;;;;;;;5027219;28;883;-63
2021/04/10 16:43:26;;;;;;;;;;;;;;;;;;5026572;28;981;-62
2021/04/10 16:45:53;;;;;;;;;;;;;;;;;;5026722;28;829;-63
2021/04/10 16:48:18;;;;;;;;;;;;;;;;;;5026160;28;839;-63
2021/04/10 16:50:44;;;;;;;;;;;;;;;;;;5026657;28;873;-62
2021/04/10 16:53:09;;;;;;;;;;;;;;;;;;5026511;28;901;-63
2021/04/10 16:55:35;;;;;;;;;;;;;;;;;;5027299;28;923;-62
2021/04/10 16:58:01;;;;;;;;;;;;;;;;;;5027095;28;835;-62
2021/04/10 17:00:27;;;;;;;;;;;;;;;;;;5026414;28;865;-63
2021/04/10 17:02:53;;;;;;;;;;;;;;;;;;5034367;28;1906;-62
2021/04/10 17:05:21;;;;;;;;;;;;;;;;;;5046498;28;898;-60
2021/04/10 17:07:46;;;;;;;;;;;;;;;;;;5046389;28;810;-60
2021/04/10 17:10:12;;;;;;;;;;;;;;;;;;5046421;28;867;-62
2021/04/10 17:12:38;;;;;;;;;;;;;;;;;;5046706;28;976;-60
2021/04/10 17:15:04;;;;;;;;;;;;;;;;;;5046465;28;850;-61